createdAt,value
2023-03-03T00:00:20.408Z,34.77
2023-03-03T00:02:47.721Z,34.71
2023-03-03T00:05:18.097Z,34.73
2023-03-03T00:07:45.576Z,34.69
2023-03-03T00:10:13.039Z,34.75
2023-03-03T00:12:48.454Z,34.79
2023-03-03T00:15:20.032Z,34.71
2023-03-03T00:17:50.495Z,34.72
2023-03-03T00:20:31.190Z,34.66
2023-03-03T00:23:06.196Z,34.76
2023-03-03T00:25:34.003Z,34.72
2023-03-03T00:28:23.618Z,34.77
2023-03-03T00:30:52.109Z,34.87
2023-03-03T00:33:54.118Z,34.81
2023-03-03T00:36:37.984Z,34.76
2023-03-03T00:39:20.929Z,34.70
2023-03-03T00:41:49.559Z,34.66
2023-03-03T00:44:39.094Z,34.61
2023-03-03T00:47:31.629Z,34.54
2023-03-03T00:50:05.643Z,34.56
2023-03-03T00:52:38.382Z,34.57
2023-03-03T00:55:06.164Z,34.55
2023-03-03T00:57:33.457Z,34.54
2023-03-03T01:00:00.687Z,34.58
2023-03-03T01:02:27.686Z,34.61
2023-03-03T01:04:56.958Z,34.63
2023-03-03T01:07:24.878Z,34.66
2023-03-03T01:09:51.772Z,34.64
2023-03-03T01:12:19.296Z,34.64
2023-03-03T01:14:48.659Z,34.62
2023-03-03T01:17:16.094Z,34.60
2023-03-03T01:19:44.851Z,34.64
2023-03-03T01:22:11.627Z,34.88
2023-03-03T01:24:38.948Z,34.92
2023-03-03T01:27:05.695Z,34.99
2023-03-03T01:29:36.462Z,35.01
2023-03-03T01:32:03.535Z,35.07
2023-03-03T01:34:30.469Z,35.12
2023-03-03T01:37:00.383Z,35.03
2023-03-03T01:39:27.352Z,34.96
2023-03-03T01:41:54.657Z,34.83
2023-03-03T01:44:21.472Z,35.10
2023-03-03T01:46:52.363Z,35.00
2023-03-03T01:49:23.708Z,34.93
2023-03-03T01:51:53.760Z,34.99
2023-03-03T01:54:29.888Z,35.02
2023-03-03T01:56:59.841Z,35.01
2023-03-03T01:59:29.016Z,35.04
2023-03-03T02:01:55.759Z,35.04
2023-03-03T02:04:25.865Z,35.11
2023-03-03T02:07:06.290Z,35.11
2023-03-03T02:09:39.523Z,35.16
2023-03-03T02:12:08.730Z,35.09
2023-03-03T02:14:35.734Z,35.02
2023-03-03T02:17:03.041Z,35.07
2023-03-03T02:19:51.584Z,35.03
2023-03-03T02:22:30.852Z,34.98
2023-03-03T02:25:00.331Z,35.01
2023-03-03T02:27:28.093Z,35.03
2023-03-03T02:29:55.561Z,34.98
2023-03-03T02:32:22.373Z,34.93
2023-03-03T02:34:51.590Z,34.82
2023-03-03T02:37:18.740Z,34.80
2023-03-03T02:39:46.116Z,34.71
2023-03-03T02:42:25.361Z,34.75
2023-03-03T02:44:54.389Z,34.72
2023-03-03T02:47:21.031Z,34.70
2023-03-03T02:49:47.812Z,34.70
2023-03-03T02:52:17.623Z,34.72
2023-03-03T02:54:45.576Z,34.65
2023-03-03T02:57:13.228Z,34.62
2023-03-03T02:59:39.959Z,34.67
2023-03-03T03:02:12.377Z,34.68
2023-03-03T03:04:39.616Z,34.68
2023-03-03T03:07:07.143Z,34.72
2023-03-03T03:09:35.683Z,34.70
2023-03-03T03:12:02.813Z,34.78
2023-03-03T03:14:33.960Z,34.74
2023-03-03T03:17:01.587Z,34.73
2023-03-03T03:19:29.037Z,34.80
2023-03-03T03:21:56.744Z,34.68
2023-03-03T03:24:23.745Z,34.82
2023-03-03T03:26:57.295Z,34.81
2023-03-03T03:29:24.445Z,34.74
2023-03-03T03:31:52.433Z,34.75
2023-03-03T03:34:19.197Z,34.65
2023-03-03T03:36:49.434Z,34.68
2023-03-03T03:39:36.148Z,34.60
2023-03-03T03:42:03.656Z,34.59
2023-03-03T03:44:31.372Z,34.53
2023-03-03T03:46:58.924Z,34.58
2023-03-03T03:49:26.750Z,34.59
2023-03-03T03:51:54.901Z,34.53
2023-03-03T03:54:23.109Z,34.47
2023-03-03T03:56:50.113Z,34.47
2023-03-03T03:59:16.792Z,34.57
2023-03-03T04:01:45.435Z,34.54
2023-03-03T04:04:12.609Z,34.50
2023-03-03T04:06:40.073Z,34.61
2023-03-03T04:09:08.416Z,34.57
2023-03-03T04:11:36.066Z,34.66
2023-03-03T04:14:04.902Z,34.69
2023-03-03T04:16:32.306Z,34.72
2023-03-03T04:18:59.103Z,34.73
2023-03-03T04:21:27.352Z,34.76
2023-03-03T04:23:55.691Z,34.74
2023-03-03T04:26:22.631Z,34.73
2023-03-03T04:28:49.719Z,34.69
2023-03-03T04:31:17.254Z,34.80
2023-03-03T04:33:44.128Z,34.76
2023-03-03T04:36:11.561Z,34.74
2023-03-03T04:38:38.593Z,34.71
2023-03-03T04:41:05.754Z,34.68
2023-03-03T04:43:34.387Z,34.69
2023-03-03T04:46:01.458Z,34.68
2023-03-03T04:48:29.050Z,34.77
2023-03-03T04:50:56.058Z,34.63
2023-03-03T04:53:24.595Z,34.73
2023-03-03T04:55:52.652Z,34.68
2023-03-03T04:58:20.549Z,34.66
2023-03-03T05:00:47.860Z,34.70
2023-03-03T05:03:18.816Z,34.68
2023-03-03T05:05:49.132Z,34.75
2023-03-03T05:08:16.898Z,34.68
2023-03-03T05:10:44.015Z,34.69
2023-03-03T05:13:16.653Z,34.73
2023-03-03T05:15:52.113Z,34.72
2023-03-03T05:18:19.636Z,34.68
2023-03-03T05:20:49.341Z,34.77
2023-03-03T05:23:17.569Z,34.80
2023-03-03T05:25:45.128Z,34.76
2023-03-03T05:28:12.282Z,34.86
2023-03-03T05:30:39.274Z,34.70
2023-03-03T05:33:06.026Z,34.65
2023-03-03T05:35:33.971Z,34.58
2023-03-03T05:38:05.320Z,34.64
2023-03-03T05:40:32.400Z,34.64
2023-03-03T05:42:59.461Z,34.59
2023-03-03T05:45:27.576Z,34.58
2023-03-03T05:47:54.568Z,34.60
2023-03-03T05:50:21.982Z,34.51
2023-03-03T05:52:49.978Z,34.54
2023-03-03T05:55:17.928Z,34.56
2023-03-03T05:57:45.662Z,34.59
2023-03-03T06:00:15.016Z,34.52
2023-03-03T06:02:43.623Z,34.46
2023-03-03T06:05:11.281Z,34.44
2023-03-03T06:07:39.468Z,34.46
2023-03-03T06:10:06.960Z,34.46
2023-03-03T06:12:40.616Z,34.47
2023-03-03T06:15:08.687Z,34.33
2023-03-03T06:18:12.688Z,34.35
2023-03-03T06:20:40.500Z,34.31
2023-03-03T06:23:07.416Z,34.34
2023-03-03T06:25:35.517Z,34.24
2023-03-03T06:28:03.355Z,34.19
2023-03-03T06:30:32.389Z,34.17
2023-03-03T06:32:59.345Z,34.13
2023-03-03T06:35:26.530Z,34.03
2023-03-03T06:37:53.604Z,33.93
2023-03-03T06:40:20.515Z,33.93
2023-03-03T06:42:47.956Z,33.82
2023-03-03T06:45:15.873Z,33.75
2023-03-03T06:47:42.635Z,33.75
2023-03-03T06:50:11.738Z,33.68
2023-03-03T06:52:38.647Z,33.67
2023-03-03T06:55:22.510Z,33.58
2023-03-03T06:57:55.218Z,33.49
2023-03-03T07:00:25.846Z,33.57
2023-03-03T07:03:01.738Z,33.53
2023-03-03T07:05:32.474Z,33.53
2023-03-03T07:08:00.381Z,33.50
2023-03-03T07:10:28.655Z,33.34
2023-03-03T07:13:06.564Z,33.27
2023-03-03T07:15:34.879Z,33.11
2023-03-03T07:18:02.713Z,33.07
2023-03-03T07:20:33.270Z,32.95
2023-03-03T07:23:00.211Z,33.02
2023-03-03T07:25:34.820Z,32.94
2023-03-03T07:28:20.973Z,32.91
2023-03-03T07:30:48.017Z,32.82
2023-03-03T07:33:30.858Z,32.67
2023-03-03T07:35:58.634Z,32.70
2023-03-03T07:38:30.614Z,32.71
2023-03-03T07:40:58.852Z,32.67
2023-03-03T07:43:38.990Z,32.66
2023-03-03T07:46:09.442Z,32.56
2023-03-03T07:48:39.504Z,32.50
2023-03-03T07:51:32.573Z,32.39
2023-03-03T07:54:24.639Z,32.21
2023-03-03T07:56:51.483Z,32.19
2023-03-03T07:59:27.139Z,32.13
2023-03-03T08:01:55.874Z,32.00
2023-03-03T08:04:26.906Z,31.92
2023-03-03T08:06:54.241Z,31.69
2023-03-03T08:09:37.468Z,31.56
2023-03-03T08:12:08.934Z,31.43
2023-03-03T08:14:37.377Z,31.49
2023-03-03T08:17:27.690Z,31.29
2023-03-03T08:19:54.477Z,31.00
2023-03-03T08:22:31.344Z,30.80
2023-03-03T08:24:58.065Z,30.70
2023-03-03T08:27:24.635Z,30.56
2023-03-03T08:29:51.237Z,30.33
2023-03-03T08:32:18.073Z,30.14
2023-03-03T08:34:45.046Z,30.07
2023-03-03T08:37:15.881Z,29.58
2023-03-03T08:39:43.527Z,29.28
2023-03-03T08:42:10.186Z,29.02
2023-03-03T08:44:37.598Z,28.87
2023-03-03T08:47:05.193Z,28.81
2023-03-03T08:49:34.922Z,28.86
2023-03-03T08:52:01.617Z,28.83
2023-03-03T08:54:28.578Z,28.79
2023-03-03T08:56:55.662Z,28.62
2023-03-03T08:59:22.550Z,28.52
2023-03-03T09:01:49.464Z,28.45
2023-03-03T09:04:17.397Z,28.55
2023-03-03T09:06:45.111Z,28.54
2023-03-03T09:09:11.916Z,28.45
2023-03-03T09:11:44.467Z,28.55
2023-03-03T09:14:13.347Z,28.76
2023-03-03T09:18:42.307Z,30.32
2023-03-03T09:21:36.706Z,28.73
2023-03-03T09:24:05.555Z,28.52
2023-03-03T09:26:43.501Z,28.55
2023-03-03T09:29:11.550Z,28.59
2023-03-03T09:31:53.468Z,28.42
2023-03-03T09:34:41.275Z,28.41
2023-03-03T09:37:22.099Z,28.27
2023-03-03T09:39:52.397Z,28.25
2023-03-03T09:43:04.273Z,28.19
2023-03-03T09:45:48.672Z,28.04
2023-03-03T09:48:33.722Z,27.84
2023-03-03T09:51:32.369Z,27.84
2023-03-03T09:54:16.463Z,27.96
2023-03-03T09:56:49.375Z,27.95
2023-03-03T09:59:42.391Z,27.81
2023-03-03T10:02:40.298Z,27.64
2023-03-03T10:05:30.833Z,27.46
2023-03-03T10:08:12.864Z,27.32
2023-03-03T10:10:49.100Z,27.07
2023-03-03T10:13:49.806Z,26.83
2023-03-03T10:16:38.311Z,26.60
2023-03-03T10:19:15.536Z,26.79
2023-03-03T10:21:52.108Z,26.48
2023-03-03T10:24:30.724Z,26.20
2023-03-03T10:27:12.494Z,26.23
2023-03-03T10:29:42.059Z,25.98
2023-03-03T10:32:28.764Z,25.77
2023-03-03T10:35:15.652Z,25.49
2023-03-03T10:37:47.536Z,25.14
2023-03-03T10:40:30.197Z,24.91
2023-03-03T10:43:07.704Z,24.84
2023-03-03T10:45:39.798Z,24.78
2023-03-03T10:48:23.316Z,24.50
2023-03-03T10:50:51.761Z,24.54
2023-03-03T10:53:33.049Z,24.33
2023-03-03T10:56:30.276Z,24.31
2023-03-03T10:59:31.558Z,24.38
2023-03-03T11:02:03.114Z,24.41
2023-03-03T11:05:00.629Z,24.41
2023-03-03T11:07:57.811Z,24.39
2023-03-03T11:10:49.044Z,24.36
2023-03-03T11:13:31.089Z,24.11
2023-03-03T11:15:59.869Z,24.05
2023-03-03T11:19:12.562Z,24.08
2023-03-03T11:21:48.628Z,24.04
2023-03-03T11:25:02.239Z,23.89
2023-03-03T11:28:07.364Z,24.12
2023-03-03T11:30:59.968Z,24.17
2023-03-03T11:34:06.715Z,24.20
2023-03-03T11:36:42.734Z,24.25
2023-03-03T11:39:16.644Z,24.20
2023-03-03T11:42:18.856Z,24.21
2023-03-03T11:45:05.845Z,24.22
2023-03-03T11:47:39.554Z,24.17
2023-03-03T11:50:21.733Z,24.16
2023-03-03T11:53:00.814Z,24.16
2023-03-03T11:55:33.440Z,24.09
2023-03-03T11:58:07.524Z,23.93
2023-03-03T12:00:45.320Z,23.86
2023-03-03T12:03:35.916Z,23.73
2023-03-03T12:06:41.923Z,23.65
2023-03-03T12:09:27.352Z,23.64
2023-03-03T12:12:00.990Z,23.73
2023-03-03T12:14:43.921Z,23.69
2023-03-03T12:17:46.276Z,23.65
2023-03-03T12:20:26.831Z,23.86
2023-03-03T12:23:07.660Z,23.85
2023-03-03T12:26:08.466Z,23.95
2023-03-03T12:29:17.948Z,24.10
2023-03-03T12:31:51.386Z,24.18
2023-03-03T12:34:24.957Z,24.20
2023-03-03T12:37:12.734Z,24.02
2023-03-03T12:39:50.716Z,24.08
2023-03-03T12:42:18.727Z,24.08
2023-03-03T12:44:59.464Z,24.00
2023-03-03T12:47:40.957Z,23.95
2023-03-03T12:50:44.264Z,23.95
2023-03-03T12:53:22.061Z,24.06
2023-03-03T12:55:55.557Z,24.07
2023-03-03T12:58:36.846Z,24.19
2023-03-03T13:01:30.369Z,24.52
2023-03-03T13:04:05.335Z,24.92
2023-03-03T13:06:42.564Z,25.27
2023-03-03T13:09:24.256Z,25.54
2023-03-03T13:12:25.276Z,25.84
2023-03-03T13:15:10.388Z,26.09
2023-03-03T13:17:41.208Z,26.40
2023-03-03T13:20:25.840Z,26.48
2023-03-03T13:23:16.145Z,26.63
2023-03-03T13:25:57.709Z,26.79
2023-03-03T13:28:34.110Z,26.91
2023-03-03T13:31:13.086Z,26.93
2023-03-03T13:33:41.106Z,27.22
2023-03-03T13:36:09.837Z,27.24
2023-03-03T13:38:42.493Z,27.36
2023-03-03T13:41:23.876Z,27.39
2023-03-03T13:44:06.078Z,27.48
2023-03-03T13:46:41.939Z,27.50
2023-03-03T13:49:28.941Z,27.48
2023-03-03T13:52:07.181Z,27.67
2023-03-03T13:54:55.763Z,27.65
2023-03-03T13:58:11.346Z,27.84
2023-03-03T14:00:49.902Z,27.80
2023-03-03T14:03:50.262Z,28.10
2023-03-03T14:06:20.379Z,27.95
2023-03-03T14:09:56.054Z,27.80
2023-03-03T14:13:02.702Z,27.98
2023-03-03T14:15:33.169Z,28.00
2023-03-03T14:18:06.259Z,27.91
2023-03-03T14:20:53.871Z,27.95
2023-03-03T14:23:32.604Z,28.02
2023-03-03T14:26:03.640Z,28.04
2023-03-03T14:28:42.288Z,28.05
2023-03-03T14:31:24.414Z,28.14
2023-03-03T14:34:13.037Z,28.09
2023-03-03T14:36:43.025Z,28.03
2023-03-03T14:39:34.117Z,27.92
2023-03-03T14:42:14.315Z,28.00
2023-03-03T14:44:46.467Z,27.86
2023-03-03T14:47:22.003Z,27.94
2023-03-03T14:49:51.599Z,27.96
2023-03-03T14:52:22.253Z,28.01
2023-03-03T14:54:52.384Z,28.04
2023-03-03T14:57:37.637Z,28.08
2023-03-03T15:00:14.852Z,28.01
2023-03-03T15:02:51.813Z,28.17
2023-03-03T15:05:24.944Z,28.07
2023-03-03T15:07:59.334Z,28.22
2023-03-03T15:10:36.490Z,28.23
2023-03-03T15:13:20.264Z,28.37
2023-03-03T15:16:00.361Z,28.33
2023-03-03T15:18:35.678Z,28.20
2023-03-03T15:21:11.624Z,28.39
2023-03-03T15:24:17.869Z,28.30
2023-03-03T15:26:49.093Z,28.37
2023-03-03T15:29:33.355Z,28.28
2023-03-03T15:32:06.157Z,28.07
2023-03-03T15:34:51.565Z,27.95
2023-03-03T15:37:39.481Z,27.95
2023-03-03T15:40:21.862Z,28.01
2023-03-03T15:43:06.441Z,27.88
2023-03-03T15:45:46.211Z,27.75
2023-03-03T15:48:31.688Z,27.63
2023-03-03T15:51:05.678Z,27.55
2023-03-03T15:53:37.698Z,27.57
2023-03-03T15:56:16.360Z,27.61
2023-03-03T15:58:54.452Z,27.61
2023-03-03T16:01:42.454Z,27.56
2023-03-03T16:04:16.470Z,27.55
2023-03-03T16:07:06.172Z,27.66
2023-03-03T16:09:57.760Z,27.68
2023-03-03T16:12:42.439Z,27.80
2023-03-03T16:15:30.363Z,27.69
2023-03-03T16:18:12.248Z,27.65
2023-03-03T16:20:50.642Z,27.73
2023-03-03T16:23:37.976Z,27.72
2023-03-03T16:26:19.482Z,27.88
2023-03-03T16:29:13.163Z,27.93
2023-03-03T16:31:45.904Z,27.85
2023-03-03T16:34:16.471Z,28.03
2023-03-03T16:37:24.556Z,28.12
2023-03-03T16:40:21.191Z,28.31
2023-03-03T16:43:44.575Z,28.39
2023-03-03T16:46:42.566Z,28.42
2023-03-03T16:49:52.167Z,28.75
2023-03-03T16:53:09.564Z,28.96
2023-03-03T16:56:10.328Z,29.14
2023-03-03T16:59:09.627Z,29.18
2023-03-03T17:02:44.569Z,29.28
2023-03-03T17:05:36.324Z,29.38
2023-03-03T17:09:03.912Z,29.44
2023-03-03T17:12:22.929Z,29.50
2023-03-03T17:15:32.629Z,29.63
2023-03-03T17:18:34.343Z,29.61
2023-03-03T17:21:33.986Z,29.66
2023-03-03T17:24:36.639Z,29.57
2023-03-03T17:27:35.367Z,29.80
2023-03-03T17:30:45.531Z,29.71
2023-03-03T17:33:50.211Z,29.88
2023-03-03T17:47:30.172Z,30.75
2023-03-03T17:50:34.348Z,30.75
2023-03-03T17:53:23.398Z,30.84
2023-03-03T17:56:05.314Z,30.97
2023-03-03T17:58:32.603Z,31.09
2023-03-03T18:01:30.478Z,31.10
2023-03-03T18:04:19.026Z,31.17
2023-03-03T18:07:08.269Z,31.28
2023-03-03T18:09:49.111Z,31.25
2023-03-03T18:12:31.651Z,31.45
2023-03-03T18:15:23.676Z,31.36
2023-03-03T18:18:09.692Z,31.51
2023-03-03T18:20:56.889Z,31.59
2023-03-03T18:23:40.935Z,31.61
2023-03-03T18:26:34.652Z,31.79
2023-03-03T18:29:26.511Z,31.93
2023-03-03T18:31:53.596Z,31.94
2023-03-03T18:34:20.702Z,32.09
2023-03-03T18:36:59.335Z,32.21
2023-03-03T18:39:38.350Z,32.38
2023-03-03T18:42:12.046Z,32.59
2023-03-03T18:44:39.987Z,32.63
2023-03-03T18:47:07.946Z,32.74
2023-03-03T18:49:57.121Z,32.86
2023-03-03T18:52:25.200Z,32.84
2023-03-03T18:55:09.336Z,32.86
2023-03-03T18:57:36.899Z,33.03
2023-03-03T19:00:16.557Z,33.09
2023-03-03T19:02:52.069Z,33.25
2023-03-03T19:05:46.491Z,33.34
2023-03-03T19:08:25.504Z,33.37
2023-03-03T19:10:58.962Z,33.36
2023-03-03T19:13:31.897Z,33.45
2023-03-03T19:16:06.289Z,33.40
2023-03-03T19:18:35.325Z,33.51
2023-03-03T19:21:31.771Z,33.56
2023-03-03T19:24:00.172Z,33.59
2023-03-03T19:26:30.379Z,33.66
2023-03-03T19:29:20.554Z,33.68
2023-03-03T19:31:54.060Z,33.61
2023-03-03T19:34:41.065Z,33.70
2023-03-03T19:37:11.049Z,33.72
2023-03-03T19:39:54.108Z,33.82
2023-03-03T19:42:26.168Z,33.88
2023-03-03T19:45:32.578Z,33.89
2023-03-03T19:48:06.293Z,33.89
2023-03-03T19:50:55.269Z,33.93
2023-03-03T19:53:37.931Z,34.03
2023-03-03T19:56:38.968Z,33.98
2023-03-03T19:59:24.456Z,33.95
2023-03-03T20:02:02.038Z,33.85
2023-03-03T20:04:35.029Z,33.96
2023-03-03T20:07:34.343Z,33.94
2023-03-03T20:10:07.584Z,34.01
2023-03-03T20:12:52.812Z,34.00
2023-03-03T20:15:37.708Z,34.01
2023-03-03T20:18:34.530Z,34.07
2023-03-03T20:21:19.717Z,34.03
2023-03-03T20:24:05.103Z,34.04
2023-03-03T20:26:44.650Z,33.99
2023-03-03T20:29:34.791Z,34.01
2023-03-03T20:32:07.856Z,33.93
2023-03-03T20:34:38.728Z,34.02
2023-03-03T20:37:20.176Z,34.04
2023-03-03T20:40:12.496Z,34.14
2023-03-03T20:43:05.883Z,34.24
2023-03-03T20:46:02.120Z,34.32
2023-03-03T20:48:38.336Z,34.33
2023-03-03T20:51:29.183Z,34.67
2023-03-03T20:54:27.036Z,34.63
2023-03-03T20:56:59.705Z,34.64
2023-03-03T20:59:34.460Z,34.70
2023-03-03T21:02:12.064Z,34.72
2023-03-03T21:04:40.162Z,34.65
2023-03-03T21:07:07.052Z,34.56
2023-03-03T21:09:38.391Z,34.57
2023-03-03T21:12:29.275Z,34.62
2023-03-03T21:15:06.967Z,34.89
2023-03-03T21:17:34.149Z,35.01
2023-03-03T21:20:27.640Z,35.07
2023-03-03T21:23:03.205Z,35.16
2023-03-03T21:25:52.424Z,35.39
2023-03-03T21:36:37.358Z,37.90
2023-03-03T21:39:27.899Z,35.86
2023-03-03T21:42:02.029Z,35.63
2023-03-03T21:44:34.333Z,35.49
2023-03-03T21:47:03.491Z,35.55
2023-03-03T21:49:52.178Z,35.62
2023-03-03T21:52:21.453Z,35.44
2023-03-03T21:54:50.835Z,35.44
2023-03-03T21:57:19.548Z,35.26
2023-03-03T21:59:47.847Z,35.23
2023-03-03T22:02:16.260Z,35.30
2023-03-03T22:04:44.808Z,35.25
2023-03-03T22:07:13.184Z,35.22
2023-03-03T22:09:42.569Z,35.33
2023-03-03T22:12:12.180Z,35.21
2023-03-03T22:14:42.711Z,35.33
2023-03-03T22:17:11.795Z,35.34
2023-03-03T22:19:40.292Z,35.22
2023-03-03T22:22:09.427Z,35.08
2023-03-03T22:24:37.837Z,35.20
2023-03-03T22:27:07.840Z,35.15
2023-03-03T22:29:37.027Z,35.09
2023-03-03T22:32:05.530Z,35.09
2023-03-03T22:34:33.945Z,35.06
2023-03-03T22:37:02.094Z,35.06
2023-03-03T22:39:30.575Z,35.14
2023-03-03T22:41:58.853Z,35.13
2023-03-03T22:44:26.998Z,35.11
2023-03-03T22:46:55.231Z,35.15
2023-03-03T22:49:23.382Z,35.30
2023-03-03T22:51:51.514Z,35.30
2023-03-03T22:54:20.969Z,35.27
2023-03-03T22:56:49.041Z,35.32
2023-03-03T22:59:17.716Z,35.39
2023-03-03T23:01:48.029Z,35.22
2023-03-03T23:04:16.939Z,35.44
2023-03-03T23:06:47.562Z,35.40
2023-03-03T23:09:20.557Z,35.45
2023-03-03T23:11:50.152Z,35.26
2023-03-03T23:14:23.644Z,35.41
2023-03-03T23:16:58.509Z,35.58
2023-03-03T23:19:35.482Z,35.64
2023-03-03T23:22:10.144Z,35.62
2023-03-03T23:24:44.173Z,35.78
2023-03-03T23:27:20.792Z,35.72
2023-03-03T23:29:49.958Z,35.83
2023-03-03T23:32:19.175Z,35.79
2023-03-03T23:34:49.964Z,35.80
2023-03-03T23:37:23.121Z,35.67
2023-03-03T23:39:51.406Z,35.64
2023-03-03T23:42:19.464Z,35.71
2023-03-03T23:44:47.739Z,35.58
2023-03-03T23:47:17.359Z,35.68
2023-03-03T23:49:46.324Z,35.67
2023-03-03T23:52:14.546Z,35.68
2023-03-03T23:54:45.255Z,35.51
2023-03-03T23:57:13.762Z,35.77
2023-03-03T23:59:42.033Z,35.74
